Wellesbourne Mountford, United Kingdom
Current Conditions -  °F | °C
As of 7:20 AM on Wednesday 22 Oct 2014 (Local Time) from EGBE Reporting Station
Clear Clear  
Wind Chill:   Ceiling: Unl
Heat Index:   Visibility: 6mi
Dew Point:   Wind: 6mph
Humidity: 87%   Direction: 220°SW
Pressure: 30.24"   Gusts: NA
Location:  52.18°N, 1.58°W
Report Text: EGBE 220620Z 22005KT CAVOK 06/04 Q1024
Loading
Personal Weather Stations






























Interactive Weather Map
Tropical Storm Tracking
New forecast layout! Learn more

10-Day Weather Forecast

Advertisements
Track Severe Weather on mobile